Time;durP1;ratioP1;P1;durP2;ratioP2;P2;SDS_P1;SDS_P2;PMS_P1;PMS_P2;Temp;Humidity;BMP_temperature;BMP_pressure;BME280_temperature;BME280_humidity;BME280_pressure;Samples;Min_cycle;Max_cycle;Signal;HPM_P1;HPM_P2
2021/12/19 00:00:16;;;;;;;62.60;22.23;;;4.00;99.90;;;;;;5004889;28;20401;-55
2021/12/19 00:08:29;;;;;;;58.65;19.33;;;3.90;99.90;;;;;;5001560;28;20426;-55
2021/12/19 00:10:55;;;;;;;54.45;18.30;;;3.90;99.90;;;;;;5007693;28;20439;-55
2021/12/19 00:13:26;;;;;;;56.20;19.27;;;3.90;99.90;;;;;;5007970;28;20408;-54
2021/12/19 00:15:52;;;;;;;51.40;17.47;;;4.00;99.90;;;;;;4998837;28;20486;-54
2021/12/19 00:18:18;;;;;;;52.75;19.20;;;3.90;99.90;;;;;;5007550;28;20396;-55
2021/12/19 00:20:44;;;;;;;52.38;18.85;;;3.80;99.90;;;;;;5006201;28;20407;-55
2021/12/19 00:23:11;;;;;;;52.17;19.00;;;4.50;99.90;;;;;;4998096;28;20906;-55
2021/12/19 00:25:37;;;;;;;53.83;18.67;;;4.90;99.90;;;;;;4990023;28;20409;-55
2021/12/19 00:28:03;;;;;;;54.78;18.50;;;5.10;99.90;;;;;;4989452;28;20414;-55
2021/12/19 00:30:29;;;;;;;49.00;18.60;;;3.80;99.90;;;;;;4990039;28;20394;-55
2021/12/19 00:32:54;;;;;;;56.83;17.47;;;3.90;99.90;;;;;;4999030;28;20458;-54
2021/12/19 00:35:20;;;;;;;49.10;17.63;;;4.00;99.90;;;;;;4997134;28;20403;-54
2021/12/19 00:37:46;;;;;;;58.33;17.67;;;3.90;99.90;;;;;;5005795;28;20401;-55
2021/12/19 00:40:13;;;;;;;57.07;18.50;;;3.80;99.90;;;;;;5007059;28;20943;-54
2021/12/19 00:42:39;;;;;;;56.85;17.90;;;3.80;99.90;;;;;;5009023;28;20381;-55
2021/12/19 00:45:16;;;;;;;57.87;17.87;;;3.80;99.90;;;;;;5007995;28;20768;-55
2021/12/19 00:47:43;;;;;;;53.78;18.35;;;3.80;99.90;;;;;;5005668;28;20536;-55
2021/12/19 00:50:10;;;;;;;49.80;16.45;;;3.90;99.90;;;;;;5007997;28;20389;-55
2021/12/19 00:52:35;;;;;;;45.50;15.77;;;4.00;99.90;;;;;;5005599;28;20413;-55
2021/12/19 00:55:01;;;;;;;42.53;15.90;;;4.00;99.90;;;;;;5006944;28;20707;-56
2021/12/19 00:57:27;;;;;;;43.97;15.53;;;4.00;99.90;;;;;;5006956;28;20749;-55
2021/12/19 00:59:52;;;;;;;44.53;17.40;;;4.10;99.90;;;;;;5004093;28;20409;-55
2021/12/19 01:02:18;;;;;;;46.63;15.50;;;3.90;99.90;;;;;;5005353;28;20744;-55
2021/12/19 01:04:44;;;;;;;36.37;14.40;;;3.80;99.90;;;;;;4998888;28;20572;-55
2021/12/19 01:07:09;;;;;;;46.75;15.40;;;4.40;99.90;;;;;;4998328;28;20811;-54
2021/12/19 01:09:35;;;;;;;43.37;15.63;;;3.90;99.90;;;;;;4996935;28;20406;-54
2021/12/19 01:12:02;;;;;;;43.13;15.52;;;5.70;99.90;;;;;;5007283;28;20737;-54
2021/12/19 01:14:27;;;;;;;39.58;15.88;;;3.90;99.90;;;;;;4998472;28;20450;-54
2021/12/19 01:16:54;;;;;;;43.93;14.63;;;4.00;99.90;;;;;;5000040;28;20797;-54
2021/12/19 01:19:22;;;;;;;47.08;16.10;;;4.50;99.90;;;;;;4998040;28;20725;-55
2021/12/19 01:21:48;;;;;;;43.65;13.15;;;4.10;99.90;;;;;;5000032;28;20428;-54
2021/12/19 01:24:14;;;;;;;34.47;12.93;;;4.10;99.90;;;;;;4997143;28;20639;-54
2021/12/19 01:26:42;;;;;;;38.90;14.77;;;4.10;99.90;;;;;;5006071;28;20947;-54
2021/12/19 01:29:11;;;;;;;43.47;15.30;;;3.90;99.90;;;;;;5010633;28;20407;-54
2021/12/19 01:31:37;;;;;;;41.65;14.80;;;4.00;99.90;;;;;;5013581;28;20421;-54
2021/12/19 01:34:03;;;;;;;42.42;16.08;;;5.60;99.90;;;;;;5012217;28;20684;-54
2021/12/19 01:36:28;;;;;;;35.47;13.20;;;4.00;99.90;;;;;;5012487;28;20480;-54
2021/12/19 01:38:54;;;;;;;39.20;14.30;;;4.00;99.90;;;;;;5012022;28;20841;-54
2021/12/19 01:41:20;;;;;;;40.28;14.25;;;4.00;99.90;;;;;;5012880;28;20393;-54
2021/12/19 01:43:46;;;;;;;36.77;12.10;;;4.10;99.90;;;;;;5004837;28;20411;-54
2021/12/19 01:46:12;;;;;;;33.45;13.52;;;4.10;99.90;;;;;;5005702;28;20385;-54
2021/12/19 01:48:38;;;;;;;36.17;13.70;;;5.50;99.90;;;;;;5012497;28;20865;-54
2021/12/19 01:51:04;;;;;;;38.77;14.00;;;4.20;99.90;;;;;;5010688;28;20486;-54
2021/12/19 01:53:30;;;;;;;34.27;11.93;;;4.10;99.90;;;;;;5012621;28;20401;-54
2021/12/19 01:55:56;;;;;;;31.20;12.30;;;4.10;99.90;;;;;;5012075;28;20396;-54
2021/12/19 01:58:23;;;;;;;38.38;13.70;;;4.20;99.90;;;;;;5006913;28;20423;-54
2021/12/19 02:00:55;;;;;;;35.15;13.25;;;4.60;99.90;;;;;;5001201;28;20721;-54
2021/12/19 02:03:21;;;;;;;35.58;12.38;;;5.50;99.90;;;;;;4992199;28;20856;-54
2021/12/19 02:05:47;;;;;;;37.90;12.38;;;4.20;99.90;;;;;;4992445;28;20389;-54
2021/12/19 02:08:13;;;;;;;37.30;12.68;;;4.20;99.90;;;;;;4991478;28;20419;-54
2021/12/19 02:10:42;;;;;;;36.53;13.32;;;4.30;99.90;;;;;;4992460;28;20404;-55
2021/12/19 02:13:10;;;;;;;38.42;14.20;;;4.20;99.90;;;;;;4991760;28;20374;-54
2021/12/19 02:15:36;;;;;;;37.88;12.88;;;4.30;99.90;;;;;;4992476;28;20441;-54
2021/12/19 02:18:12;;;;;;;37.90;12.70;;;4.60;99.90;;;;;;4991729;28;20391;-54
2021/12/19 02:20:41;;;;;;;35.67;14.00;;;4.50;99.90;;;;;;4992798;28;20390;-54
2021/12/19 02:23:09;;;;;;;32.40;12.75;;;4.40;99.90;;;;;;4991372;28;20873;-53
2021/12/19 02:25:35;;;;;;;39.08;13.77;;;4.10;99.90;;;;;;4992293;28;20391;-54
2021/12/19 02:28:02;;;;;;;34.90;12.63;;;4.10;99.90;;;;;;4991402;28;20441;-54
2021/12/19 02:30:28;;;;;;;36.43;13.90;;;3.90;99.90;;;;;;4992275;28;20548;-53
2021/12/19 02:32:54;;;;;;;35.27;13.57;;;3.80;99.90;;;;;;4992300;28;20390;-53
2021/12/19 02:35:25;;;;;;;39.37;13.90;;;3.80;99.90;;;;;;4990434;28;20931;-54
2021/12/19 02:48:08;;;;;;;40.60;13.88;;;4.70;99.90;;;;;;4991358;28;20395;-54
2021/12/19 02:48:45;;;;;;;32.47;12.35;;;3.80;99.90;;;;;;4991826;28;20393;-54
2021/12/19 02:51:11;;;;;;;32.73;12.30;;;5.00;99.90;;;;;;4991117;28;20379;-54
2021/12/19 02:53:40;;;;;;;33.50;11.82;;;3.90;99.90;;;;;;4991946;28;20404;-54
2021/12/19 02:56:09;;;;;;;32.95;12.77;;;3.90;99.90;;;;;;4990620;28;20390;-53
2021/12/19 02:58:37;;;;;;;43.00;13.90;;;3.90;99.90;;;;;;4991473;28;20387;-54
2021/12/19 03:01:07;;;;;;;41.10;13.87;;;3.90;99.90;;;;;;4991005;28;20856;-54
2021/12/19 03:03:33;;;;;;;40.90;13.85;;;3.80;99.90;;;;;;4991602;28;20461;-54
2021/12/19 03:05:59;;;;;;;41.72;14.68;;;3.80;99.90;;;;;;4991259;28;20552;-54
2021/12/19 03:08:25;;;;;;;37.40;12.70;;;3.70;99.90;;;;;;4991343;28;21019;-54
2021/12/19 03:18:58;;;;;;;37.20;13.57;;;3.70;99.90;;;;;;4978775;28;20875;-54
2021/12/19 03:21:25;;;;;;;42.50;14.50;;;5.00;99.90;;;;;;4990939;28;20418;-54
2021/12/19 03:23:51;;;;;;;42.17;14.00;;;3.60;99.90;;;;;;4990700;28;20418;-54
2021/12/19 03:26:17;;;;;;;44.00;14.27;;;5.20;99.90;;;;;;4990480;28;20382;-54
2021/12/19 03:28:43;;;;;;;46.25;14.75;;;3.50;99.90;;;;;;4991211;28;20444;-53
2021/12/19 03:31:09;;;;;;;45.13;14.00;;;3.50;99.90;;;;;;4990276;28;20421;-54
2021/12/19 03:33:36;;;;;;;43.60;13.23;;;3.50;99.90;;;;;;4990837;28;20452;-54
2021/12/19 03:36:03;;;;;;;40.63;13.73;;;3.50;99.90;;;;;;4990352;28;20398;-54
2021/12/19 03:38:29;;;;;;;47.42;14.00;;;3.50;99.90;;;;;;4990547;28;20713;-53
2021/12/19 03:41:12;;;;;;;42.40;13.60;;;3.50;99.90;;;;;;4990703;28;20401;-54
2021/12/19 03:43:37;;;;;;;39.45;12.68;;;3.60;99.90;;;;;;4990317;28;20391;-54
2021/12/19 03:46:03;;;;;;;38.10;12.63;;;3.50;99.90;;;;;;4989694;28;20886;-54
2021/12/19 03:48:29;;;;;;;34.92;12.07;;;3.30;99.90;;;;;;4997497;28;20421;-54
2021/12/19 03:50:54;;;;;;;44.55;12.73;;;3.60;99.90;;;;;;5001441;28;20409;-54
2021/12/19 03:53:23;;;;;;;47.37;13.57;;;3.50;99.90;;;;;;5009224;28;20420;-54
2021/12/19 03:55:50;;;;;;;38.00;12.05;;;3.30;99.90;;;;;;5010304;28;20877;-53
2021/12/19 03:58:18;;;;;;;37.63;12.25;;;3.50;99.90;;;;;;5008882;28;21211;-54
2021/12/19 04:00:45;;;;;;;43.65;13.73;;;3.80;99.90;;;;;;5009729;28;20748;-54
2021/12/19 04:03:17;;;;;;;37.70;13.07;;;3.50;99.90;;;;;;5009016;28;20395;-55
2021/12/19 04:05:43;;;;;;;41.60;13.23;;;3.50;99.90;;;;;;5010293;28;20392;-54
2021/12/19 04:08:10;;;;;;;39.28;11.98;;;3.40;99.90;;;;;;5009190;28;20424;-54
2021/12/19 04:10:36;;;;;;;38.80;12.50;;;3.80;99.90;;;;;;5001826;28;20412;-54
2021/12/19 04:13:02;;;;;;;46.03;12.10;;;4.30;99.90;;;;;;4999756;28;20480;-54
2021/12/19 04:15:28;;;;;;;42.00;12.75;;;3.40;99.90;;;;;;4990410;28;20720;-54
2021/12/19 04:17:53;;;;;;;41.88;11.43;;;3.80;99.90;;;;;;5008027;28;20866;-54
2021/12/19 04:20:19;;;;;;;39.00;12.57;;;3.40;99.90;;;;;;5009244;28;20849;-54
2021/12/19 04:22:47;;;;;;;39.95;12.65;;;3.40;99.90;;;;;;5009399;28;20424;-53
2021/12/19 04:25:13;;;;;;;44.80;12.23;;;4.60;99.90;;;;;;5008808;28;20791;-54
2021/12/19 04:27:39;;;;;;;44.53;13.10;;;3.60;99.90;;;;;;5008521;28;20416;-54
2021/12/19 04:30:07;;;;;;;39.22;13.10;;;3.20;99.90;;;;;;5007602;28;20393;-54
2021/12/19 04:32:38;;;;;;;36.40;11.95;;;3.30;99.90;;;;;;5009718;28;20415;-53
2021/12/19 04:35:05;;;;;;;43.70;12.30;;;3.70;99.90;;;;;;5008892;28;20752;-53
2021/12/19 04:40:21;;;;;;;39.23;12.33;;;3.10;99.90;;;;;;5008661;28;20374;-54
2021/12/19 04:51:50;;;;;;;33.85;11.35;;;3.00;99.90;;;;;;5008953;28;20384;-54
2021/12/19 04:57:08;;;;;;;30.88;10.82;;;3.10;99.90;;;;;;5009491;28;20425;-54
2021/12/19 05:02:29;;;;;;;28.77;10.37;;;3.40;99.90;;;;;;5013150;28;20751;-53
2021/12/19 05:05:26;;;;;;;27.95;9.23;;;3.20;99.90;;;;;;5012095;28;20403;-53
2021/12/19 05:15:53;;;;;;;29.77;9.30;;;4.80;99.90;;;;;;4998733;28;20437;-50
2021/12/19 05:18:22;;;;;;;24.67;8.82;;;3.20;99.90;;;;;;5001916;28;20675;-50
2021/12/19 05:21:12;;;;;;;26.80;8.05;;;3.10;99.90;;;;;;5011587;28;20449;-52
2021/12/19 05:26:12;;;;;;;28.13;8.65;;;3.50;99.90;;;;;;5012009;28;20396;-54
2021/12/19 05:28:38;;;;;;;25.30;8.93;;;3.20;99.90;;;;;;5000838;28;20414;-54
2021/12/19 05:31:03;;;;;;;27.20;9.60;;;4.90;99.90;;;;;;4993025;28;20905;-53
2021/12/19 05:33:29;;;;;;;28.50;8.67;;;3.20;99.90;;;;;;5009929;28;20969;-53
2021/12/19 05:45:11;;;;;;;26.85;9.25;;;2.90;99.90;;;;;;4996214;28;20383;-53
2021/12/19 05:46:57;;;;;;;27.52;9.48;;;2.90;99.90;;;;;;5002268;28;20901;-54
2021/12/19 05:49:23;;;;;;;27.95;9.77;;;4.70;99.90;;;;;;5008010;28;20482;-53
2021/12/19 05:51:49;;;;;;;34.10;10.80;;;3.70;99.90;;;;;;5002186;28;20406;-54
2021/12/19 05:54:15;;;;;;;25.60;9.27;;;3.20;99.90;;;;;;5001743;28;20754;-54
2021/12/19 05:56:42;;;;;;;25.67;8.50;;;3.20;99.90;;;;;;5012332;28;20464;-54
2021/12/19 05:59:08;;;;;;;27.08;9.35;;;3.90;99.90;;;;;;5011659;28;20393;-54
2021/12/19 06:01:35;;;;;;;24.25;8.88;;;3.00;99.90;;;;;;5012428;28;20470;-54
2021/12/19 06:04:01;;;;;;;26.38;9.57;;;2.90;99.90;;;;;;5003091;28;20878;-54
2021/12/19 06:06:27;;;;;;;27.73;9.17;;;3.00;99.90;;;;;;5001221;28;20421;-54
2021/12/19 06:08:53;;;;;;;28.30;9.00;;;3.70;99.90;;;;;;5009831;28;20463;-54
2021/12/19 06:11:19;;;;;;;29.85;8.70;;;3.10;99.90;;;;;;5011158;28;20385;-54
2021/12/19 06:13:45;;;;;;;33.05;10.23;;;3.90;99.90;;;;;;5012000;28;20489;-54
2021/12/19 06:16:11;;;;;;;32.40;11.00;;;3.00;99.90;;;;;;5004931;28;20402;-54
2021/12/19 06:18:36;;;;;;;33.28;12.00;;;3.10;99.90;;;;;;4992548;28;20414;-54
2021/12/19 06:21:03;;;;;;;42.90;12.10;;;2.80;99.90;;;;;;5002415;28;20409;-53
2021/12/19 06:23:33;;;;;;;33.87;11.30;;;2.70;99.90;;;;;;5002599;28;21846;-54
2021/12/19 06:25:59;;;;;;;34.65;10.75;;;2.70;99.90;;;;;;4994683;28;20835;-54
2021/12/19 06:28:25;;;;;;;34.17;11.15;;;2.70;99.90;;;;;;5004211;28;20444;-54
2021/12/19 06:30:50;;;;;;;33.97;11.40;;;2.80;99.90;;;;;;4994126;28;20811;-54
2021/12/19 06:33:16;;;;;;;32.40;11.35;;;3.90;99.90;;;;;;5003799;28;20392;-54
2021/12/19 06:35:42;;;;;;;35.08;11.52;;;2.80;99.90;;;;;;4995389;28;21232;-54
2021/12/19 06:38:08;;;;;;;33.88;11.57;;;2.80;99.90;;;;;;4992311;28;20412;-54
2021/12/19 06:40:34;;;;;;;33.43;10.90;;;2.80;99.90;;;;;;4991524;28;20404;-54
2021/12/19 06:43:01;;;;;;;32.58;10.90;;;4.60;99.90;;;;;;4991690;28;20414;-54
2021/12/19 06:45:26;;;;;;;34.25;11.50;;;4.20;99.90;;;;;;4991541;28;20427;-54
2021/12/19 06:47:52;;;;;;;33.67;10.57;;;2.80;99.90;;;;;;4991429;28;20828;-54
2021/12/19 06:50:19;;;;;;;34.47;10.50;;;2.80;99.90;;;;;;4990294;28;20530;-54
2021/12/19 06:52:47;;;;;;;34.15;10.95;;;2.80;99.90;;;;;;4994365;28;20782;-54
2021/12/19 06:55:14;;;;;;;35.58;11.70;;;2.80;99.90;;;;;;4990672;28;20431;-54
2021/12/19 06:57:40;;;;;;;32.85;11.38;;;3.00;99.90;;;;;;4992471;28;20496;-55
2021/12/19 07:00:08;;;;;;;34.15;11.50;;;3.00;99.90;;;;;;4992107;28;20887;-54
2021/12/19 07:02:34;;;;;;;34.47;11.13;;;3.10;99.90;;;;;;4992454;28;20390;-55
2021/12/19 07:05:00;;;;;;;31.10;9.77;;;3.20;99.90;;;;;;4999079;28;20411;-55
2021/12/19 07:07:27;;;;;;;35.60;10.47;;;3.10;99.90;;;;;;4992381;28;20418;-55
2021/12/19 07:09:52;;;;;;;30.48;9.80;;;3.00;99.90;;;;;;4990184;28;20406;-55
2021/12/19 07:12:19;;;;;;;32.95;10.25;;;3.00;99.90;;;;;;4989685;28;20756;-55
2021/12/19 07:14:45;;;;;;;29.70;10.02;;;3.00;99.90;;;;;;4989195;28;20473;-55
2021/12/19 07:17:11;;;;;;;29.10;10.05;;;4.30;99.90;;;;;;4991058;28;20414;-54
2021/12/19 07:19:37;;;;;;;32.80;10.68;;;3.10;99.90;;;;;;4998492;28;20779;-54
2021/12/19 07:22:03;;;;;;;34.40;10.95;;;3.10;99.90;;;;;;4994296;28;20429;-54
2021/12/19 07:24:29;;;;;;;27.63;10.20;;;3.20;99.90;;;;;;5010289;28;20401;-55
2021/12/19 07:26:55;;;;;;;27.42;9.90;;;3.10;99.90;;;;;;5008451;28;20482;-55
2021/12/19 07:29:20;;;;;;;27.08;9.88;;;3.00;99.90;;;;;;5004859;28;20411;-55
2021/12/19 07:31:46;;;;;;;26.80;9.20;;;3.10;99.90;;;;;;4990708;28;20545;-55
2021/12/19 07:34:12;;;;;;;29.60;10.30;;;4.10;99.90;;;;;;5007227;28;20397;-55
2021/12/19 07:36:42;;;;;;;27.37;9.73;;;3.20;99.90;;;;;;4990495;28;20402;-55
2021/12/19 07:39:23;;;;;;;23.17;9.05;;;3.60;99.90;;;;;;5006305;28;20389;-54
2021/12/19 07:41:49;;;;;;;29.38;9.80;;;3.20;99.90;;;;;;4990212;28;20410;-54
2021/12/19 07:44:14;;;;;;;27.42;8.88;;;3.10;99.90;;;;;;5004212;28;20412;-54
2021/12/19 07:46:40;;;;;;;27.70;9.10;;;3.10;99.90;;;;;;4996400;28;20496;-54
2021/12/19 07:49:06;;;;;;;25.57;8.77;;;3.00;99.90;;;;;;5005461;28;20448;-54
2021/12/19 07:51:31;;;;;;;27.98;9.10;;;3.20;99.90;;;;;;5006878;28;20412;-54
2021/12/19 07:53:57;;;;;;;24.30;10.10;;;4.00;99.90;;;;;;5002953;28;20460;-55
2021/12/19 07:56:23;;;;;;;28.57;9.87;;;4.50;99.90;;;;;;5002231;28;20386;-54
2021/12/19 07:58:48;;;;;;;26.27;9.57;;;3.20;99.90;;;;;;5006462;28;20389;-55
2021/12/19 08:01:14;;;;;;;20.83;8.73;;;4.60;99.90;;;;;;5003032;28;20793;-54
2021/12/19 08:03:40;;;;;;;18.65;7.43;;;3.20;99.90;;;;;;5005282;28;20914;-54
2021/12/19 08:06:05;;;;;;;19.00;7.70;;;3.30;99.90;;;;;;5003999;28;20412;-55
2021/12/19 08:08:33;;;;;;;22.70;7.33;;;3.90;99.90;;;;;;4994381;28;20432;-54
2021/12/19 08:13:44;;;;;;;19.88;7.55;;;3.30;99.90;;;;;;5000943;28;20416;-54
2021/12/19 08:16:10;;;;;;;24.92;8.20;;;3.30;99.90;;;;;;4998216;28;20401;-54
2021/12/19 08:18:36;;;;;;;20.67;8.00;;;4.10;99.90;;;;;;4996167;28;20406;-54
2021/12/19 08:21:02;;;;;;;22.10;6.80;;;3.40;99.90;;;;;;5003218;28;20405;-54
2021/12/19 08:23:28;;;;;;;19.15;6.30;;;3.40;99.90;;;;;;4998558;28;20420;-54
2021/12/19 08:25:54;;;;;;;19.55;6.70;;;3.30;99.90;;;;;;5000032;28;20388;-54
2021/12/19 08:28:19;;;;;;;15.70;6.57;;;3.30;99.90;;;;;;5004715;28;20747;-54
2021/12/19 08:30:45;;;;;;;17.30;5.90;;;3.40;99.90;;;;;;5001736;28;20395;-54
2021/12/19 08:33:11;;;;;;;16.48;6.32;;;3.80;99.90;;;;;;4996219;28;20389;-54
2021/12/19 08:35:37;;;;;;;14.48;6.72;;;3.60;99.90;;;;;;5008694;28;20389;-54
2021/12/19 08:38:03;;;;;;;17.58;6.40;;;3.50;99.90;;;;;;5006845;28;20902;-54
2021/12/19 08:40:31;;;;;;;17.77;6.18;;;3.50;99.90;;;;;;5007359;28;20417;-54
2021/12/19 08:42:57;;;;;;;21.23;6.20;;;3.50;99.90;;;;;;5005006;28;20421;-54
2021/12/19 08:45:23;;;;;;;19.02;7.13;;;3.50;99.90;;;;;;4999710;28;20422;-53
2021/12/19 08:47:49;;;;;;;15.20;6.70;;;3.50;99.90;;;;;;5008316;28;20459;-55
2021/12/19 08:50:15;;;;;;;16.08;5.70;;;3.60;99.90;;;;;;5006495;28;20428;-54
2021/12/19 08:52:42;;;;;;;16.95;5.90;;;3.50;99.90;;;;;;4996619;28;20463;-54
2021/12/19 08:55:10;;;;;;;14.10;5.70;;;3.40;99.90;;;;;;5007187;28;20577;-54
2021/12/19 08:57:36;;;;;;;16.80;6.70;;;3.40;99.90;;;;;;5008620;28;20396;-55
2021/12/19 09:00:11;;;;;;;18.20;7.22;;;3.60;99.90;;;;;;5007193;28;20921;-55
2021/12/19 09:02:38;;;;;;;18.70;7.15;;;3.50;99.90;;;;;;4997383;28;20424;-54
2021/12/19 09:05:04;;;;;;;17.65;6.50;;;3.40;99.90;;;;;;4997388;28;20420;-53
2021/12/19 09:07:29;;;;;;;14.98;5.85;;;3.30;99.90;;;;;;4993273;28;20480;-54
2021/12/19 09:09:55;;;;;;;17.77;5.95;;;3.30;99.90;;;;;;4994433;28;20827;-54
2021/12/19 09:12:21;;;;;;;16.33;6.88;;;3.50;99.90;;;;;;4990625;28;20416;-55
2021/12/19 09:14:46;;;;;;;13.93;6.20;;;3.50;99.90;;;;;;5006961;28;20381;-54
2021/12/19 09:17:12;;;;;;;16.55;5.80;;;3.70;99.90;;;;;;5004393;28;20406;-54
2021/12/19 09:19:38;;;;;;;15.90;6.00;;;3.80;99.90;;;;;;5007232;28;20408;-54
2021/12/19 09:22:04;;;;;;;12.18;4.70;;;3.90;99.90;;;;;;5008570;28;20488;-54
2021/12/19 09:24:30;;;;;;;13.13;5.20;;;3.80;99.90;;;;;;5003260;28;20872;-54
2021/12/19 09:26:56;;;;;;;13.13;5.53;;;3.70;99.90;;;;;;5007185;28;20814;-54
2021/12/19 09:29:21;;;;;;;13.80;5.67;;;3.70;99.90;;;;;;5006333;28;20407;-54
2021/12/19 09:31:47;;;;;;;14.38;4.97;;;3.70;99.90;;;;;;5008854;28;20376;-55
2021/12/19 09:34:13;;;;;;;13.80;5.13;;;3.90;99.90;;;;;;5005689;28;20419;-53
2021/12/19 09:36:39;;;;;;;14.90;6.10;;;4.00;99.90;;;;;;5001063;28;20482;-54
2021/12/19 09:39:05;;;;;;;12.73;5.75;;;3.90;99.90;;;;;;5005887;28;20415;-54
2021/12/19 09:41:36;;;;;;;14.25;5.15;;;4.00;99.90;;;;;;5006848;28;20412;-55
2021/12/19 09:44:05;;;;;;;13.13;5.40;;;4.10;99.90;;;;;;5002051;28;20478;-55
2021/12/19 09:46:35;;;;;;;12.70;5.40;;;4.20;99.90;;;;;;5007341;28;20862;-54
2021/12/19 09:49:03;;;;;;;11.98;5.32;;;4.10;99.90;;;;;;5006171;28;20543;-54
2021/12/19 09:51:29;;;;;;;12.85;5.82;;;4.20;99.90;;;;;;5007415;28;20409;-54
2021/12/19 09:53:55;;;;;;;14.45;5.55;;;4.00;99.90;;;;;;5007460;28;20403;-55
2021/12/19 09:56:20;;;;;;;12.65;4.90;;;4.00;99.90;;;;;;5008066;28;20482;-54
2021/12/19 09:58:48;;;;;;;13.20;5.03;;;5.70;99.90;;;;;;5009117;28;20415;-55
2021/12/19 10:01:13;;;;;;;12.80;4.80;;;3.80;99.90;;;;;;5008808;28;20393;-54
2021/12/19 10:03:39;;;;;;;12.03;4.70;;;3.90;99.90;;;;;;5004510;28;20419;-55
2021/12/19 10:06:13;;;;;;;13.27;5.25;;;4.00;99.90;;;;;;5008524;28;20543;-54
2021/12/19 10:08:39;;;;;;;16.30;8.18;;;3.90;99.90;;;;;;5009024;28;21240;-55
2021/12/19 10:11:13;;;;;;;11.83;4.90;;;3.90;99.90;;;;;;5004947;28;20406;-55
2021/12/19 10:13:39;;;;;;;11.27;4.97;;;4.00;99.90;;;;;;5007921;28;20495;-55
2021/12/19 10:16:31;;;;;;;10.60;4.27;;;4.00;99.90;;;;;;5011395;28;21009;-56
2021/12/19 10:18:59;;;;;;;10.75;4.50;;;4.10;99.90;;;;;;5006962;28;20786;-55
2021/12/19 10:21:27;;;;;;;9.80;4.30;;;4.10;99.90;;;;;;5004486;28;20401;-55
2021/12/19 10:23:59;;;;;;;9.53;4.30;;;4.10;99.90;;;;;;5003307;28;20425;-55
2021/12/19 10:26:25;;;;;;;9.68;4.15;;;4.30;99.90;;;;;;5005164;28;20424;-54
2021/12/19 10:29:00;;;;;;;8.98;4.57;;;4.00;99.90;;;;;;5011139;28;20770;-55
2021/12/19 10:31:28;;;;;;;9.90;4.30;;;4.00;99.90;;;;;;5005870;28;20503;-54
2021/12/19 10:33:56;;;;;;;9.30;3.80;;;4.00;99.90;;;;;;5002747;28;20413;-54
2021/12/19 10:36:22;;;;;;;6.43;2.80;;;4.10;99.90;;;;;;5001207;28;20405;-54
2021/12/19 10:38:50;;;;;;;7.53;3.03;;;4.50;99.90;;;;;;4994149;28;20402;-54
2021/12/19 10:41:19;;;;;;;7.15;2.90;;;4.10;99.90;;;;;;4996151;28;20401;-54
2021/12/19 10:43:57;;;;;;;6.97;3.40;;;4.10;99.90;;;;;;4995215;28;20395;-54
2021/12/19 10:46:32;;;;;;;11.35;4.60;;;4.00;99.90;;;;;;5003475;28;20418;-54
2021/12/19 10:49:00;;;;;;;9.07;4.38;;;4.10;99.90;;;;;;5006679;28;20497;-55
2021/12/19 10:51:26;;;;;;;9.00;3.77;;;4.20;99.90;;;;;;5005945;28;20388;-54
2021/12/19 10:54:00;;;;;;;20.23;10.07;;;4.20;99.90;;;;;;4999026;28;20497;-55
2021/12/19 10:56:31;;;;;;;8.10;3.67;;;4.10;99.90;;;;;;5000377;28;20393;-55
2021/12/19 10:58:59;;;;;;;8.50;3.55;;;4.10;99.90;;;;;;5002042;28;20400;-55
2021/12/19 11:01:31;;;;;;;7.82;3.80;;;3.80;99.90;;;;;;5001727;28;20415;-54
2021/12/19 11:03:58;;;;;;;8.40;4.03;;;3.70;99.90;;;;;;5009416;28;20397;-55
2021/12/19 11:06:28;;;;;;;9.20;4.00;;;3.70;99.90;;;;;;5006014;28;20424;-55
2021/12/19 11:08:55;;;;;;;7.67;3.73;;;3.70;99.90;;;;;;5002953;28;20413;-56
2021/12/19 11:11:42;;;;;;;7.88;3.63;;;3.80;99.90;;;;;;5007228;28;20388;-54
2021/12/19 11:14:17;;;;;;;9.43;4.22;;;4.00;99.90;;;;;;5003257;28;20451;-55
2021/12/19 11:16:43;;;;;;;8.55;4.20;;;4.10;99.90;;;;;;5009536;28;20491;-55
2021/12/19 11:19:10;;;;;;;9.02;4.00;;;4.20;99.90;;;;;;5009459;28;20451;-55
2021/12/19 11:21:37;;;;;;;11.40;4.55;;;5.20;99.90;;;;;;4998540;28;20797;-55
2021/12/19 11:24:14;;;;;;;9.52;4.75;;;4.20;99.90;;;;;;4997519;28;20413;-55
2021/12/19 11:26:42;;;;;;;8.55;4.57;;;4.30;99.90;;;;;;5009156;28;20417;-54
2021/12/19 11:29:09;;;;;;;9.77;4.63;;;4.30;99.90;;;;;;5000132;28;20429;-55
2021/12/19 11:31:37;;;;;;;11.13;4.50;;;4.40;99.90;;;;;;4999986;28;20774;-55
2021/12/19 11:34:23;;;;;;;10.18;5.05;;;5.20;99.90;;;;;;5007906;28;20408;-55
2021/12/19 11:37:22;;;;;;;10.90;5.25;;;4.90;99.90;;;;;;5000059;28;20405;-55
2021/12/19 11:39:51;;;;;;;13.85;7.50;;;4.30;99.90;;;;;;4985728;28;20525;-54
2021/12/19 11:42:21;;;;;;;14.03;7.37;;;4.40;99.90;;;;;;5005742;28;20419;-54
2021/12/19 11:47:43;;;;;;;16.20;9.20;;;4.60;99.90;;;;;;5008744;28;20499;-54
2021/12/19 11:50:20;;;;;;;14.13;8.70;;;4.70;99.90;;;;;;5009673;28;20471;-55
2021/12/19 11:52:45;;;;;;;13.60;7.13;;;4.50;99.90;;;;;;5008437;28;20516;-54
2021/12/19 11:55:14;;;;;;;14.90;8.10;;;4.20;99.90;;;;;;5009317;28;20925;-54
2021/12/19 11:58:04;;;;;;;13.18;8.73;;;5.00;99.90;;;;;;5009570;28;20396;-54
2021/12/19 12:00:33;;;;;;;13.15;7.75;;;4.10;99.90;;;;;;5008652;28;20393;-55
2021/12/19 12:03:14;;;;;;;13.50;7.87;;;4.00;99.90;;;;;;5009820;28;20583;-55
2021/12/19 12:05:46;;;;;;;15.55;9.00;;;3.90;99.90;;;;;;5009846;28;20388;-54
2021/12/19 12:08:24;;;;;;;17.45;10.45;;;3.90;99.90;;;;;;5009087;28;20420;-54
2021/12/19 12:10:55;;;;;;;16.70;9.20;;;3.80;99.90;;;;;;5004090;28;20449;-55
2021/12/19 12:13:31;;;;;;;15.68;9.80;;;3.80;99.90;;;;;;5002521;28;20451;-54
2021/12/19 12:16:08;;;;;;;16.23;9.52;;;3.70;99.90;;;;;;4998103;28;20432;-54
2021/12/19 12:18:42;;;;;;;20.00;10.55;;;3.70;99.90;;;;;;5009409;28;20385;-54
2021/12/19 12:23:59;;;;;;;16.52;9.10;;;5.20;99.90;;;;;;5009508;28;20412;-55
2021/12/19 12:26:40;;;;;;;19.27;10.27;;;3.70;99.90;;;;;;5008632;28;20397;-54
2021/12/19 12:29:07;;;;;;;19.15;10.70;;;3.80;99.90;;;;;;5009625;28;20488;-54
2021/12/19 12:31:33;;;;;;;20.05;10.23;;;3.90;99.90;;;;;;5007550;28;20719;-54
2021/12/19 12:33:59;;;;;;;19.77;10.85;;;3.90;99.90;;;;;;5009724;28;20484;-55
2021/12/19 12:36:25;;;;;;;17.60;10.27;;;4.00;99.90;;;;;;5008723;28;20468;-55
2021/12/19 12:38:53;;;;;;;21.38;11.45;;;3.90;99.90;;;;;;5009952;28;20389;-54
2021/12/19 12:41:29;;;;;;;20.00;10.00;;;3.90;99.90;;;;;;5008713;28;20393;-55
2021/12/19 12:43:56;;;;;;;20.02;9.73;;;3.70;99.90;;;;;;5009418;28;20427;-54
2021/12/19 12:46:25;;;;;;;22.83;11.73;;;3.60;99.90;;;;;;5008496;28;20858;-54
2021/12/19 12:48:54;;;;;;;21.25;10.85;;;3.60;99.90;;;;;;5009454;28;20507;-54
2021/12/19 12:51:24;;;;;;;21.00;11.52;;;3.90;99.90;;;;;;5008412;28;20708;-54
2021/12/19 12:53:53;;;;;;;22.92;11.27;;;4.40;99.90;;;;;;5009553;28;20421;-54
2021/12/19 12:56:22;;;;;;;20.27;11.00;;;3.70;99.90;;;;;;5008459;28;20467;-54
2021/12/19 12:58:54;;;;;;;16.30;8.07;;;3.70;99.90;;;;;;5009044;28;20914;-54
2021/12/19 13:01:25;;;;;;;20.08;9.43;;;3.50;99.90;;;;;;5008226;28;20866;-54
2021/12/19 13:03:55;;;;;;;23.87;10.80;;;3.30;99.90;;;;;;5009215;28;20400;-54
2021/12/19 13:06:39;;;;;;;21.55;10.05;;;3.30;99.90;;;;;;5008568;28;20936;-54
2021/12/19 13:09:18;;;;;;;20.40;10.10;;;4.10;99.90;;;;;;5009249;28;20404;-54
2021/12/19 13:11:46;;;;;;;23.65;11.38;;;3.20;99.90;;;;;;5009309;28;20389;-55
2021/12/19 13:14:29;;;;;;;24.73;12.25;;;3.40;99.90;;;;;;5008107;28;20735;-54
2021/12/19 13:17:01;;;;;;;24.03;12.80;;;3.40;99.90;;;;;;5009187;28;20389;-55
2021/12/19 13:19:33;;;;;;;22.23;11.70;;;3.60;99.90;;;;;;5009286;28;20874;-55
2021/12/19 13:21:59;;;;;;;25.65;11.82;;;3.70;99.90;;;;;;5013209;28;20409;-54
2021/12/19 13:24:24;;;;;;;21.90;11.30;;;3.50;99.90;;;;;;5012388;28;20397;-54
2021/12/19 13:27:06;;;;;;;18.65;10.23;;;3.50;99.90;;;;;;5012619;28;21244;-54
2021/12/19 13:29:32;;;;;;;20.60;10.75;;;3.40;99.90;;;;;;5012019;28;21285;-54
2021/12/19 13:32:16;;;;;;;20.40;10.10;;;3.50;99.90;;;;;;5012735;28;20397;-55
2021/12/19 13:34:41;;;;;;;21.50;10.70;;;3.60;99.90;;;;;;5011336;28;20500;-54
2021/12/19 13:37:07;;;;;;;20.00;9.70;;;3.80;99.90;;;;;;5005928;28;20491;-55
2021/12/19 13:39:33;;;;;;;15.88;8.75;;;3.90;99.90;;;;;;4997141;28;20472;-51
2021/12/19 13:42:11;;;;;;;15.47;8.97;;;3.60;99.90;;;;;;4998004;28;20494;-52
2021/12/19 13:44:37;;;;;;;17.33;10.18;;;3.60;99.90;;;;;;5005959;28;20405;-51
2021/12/19 13:47:21;;;;;;;13.98;7.75;;;3.80;99.90;;;;;;5008813;28;20452;-51
2021/12/19 13:49:47;;;;;;;13.80;6.78;;;3.70;99.90;;;;;;5007307;28;20399;-51
2021/12/19 13:52:14;;;;;;;13.90;7.85;;;3.50;99.90;;;;;;5008479;28;20413;-55
2021/12/19 13:54:40;;;;;;;16.70;8.60;;;3.30;99.90;;;;;;5011237;28;20937;-54